| time (UTC) | temp F | wind direction | speed MPH | gust MPH | rain 1hr in | rain 24hr in | rain mn in | humidity % | barometer mb |
| 20260905134526 | 77 | 188 | 0.0 | 2.0 | 0.00 | 0.03 | 0.00 | 94 | 1014.3 |
| 20260905133037 | 76 | 188 | 0.0 | 0.0 | 0.00 | 0.03 | 0.00 | 94 | 1014.3 |
| 20260905131524 | 76 | 188 | 0.0 | 0.0 | 0.00 | 0.03 | 0.00 | 94 | 1014.2 |
| 20260905130022 | 76 | 188 | 0.0 | 0.0 | 0.00 | 0.03 | 0.00 | 93 | 1014.1 |
| 20260905124522 | 75 | 188 | 0.0 | 0.0 | 0.00 | 0.03 | 0.00 | 93 | 1013.9 |
| 20260905123019 | 75 | 188 | 0.0 | 0.0 | 0.00 | 0.03 | 0.00 | 93 | 1013.8 |
| 20260905121518 | 75 | 188 | 0.0 | 0.0 | 0.00 | 0.03 | 0.00 | 93 | 1013.6 |
| 20260905120017 | 75 | 188 | 0.0 | 0.0 | 0.00 | 0.03 | 0.00 | 93 | 1013.5 |
| 20260905114515 | 75 | 188 | 0.0 | 0.0 | 0.00 | 0.03 | 0.00 | 93 | 1013.4 |
| 20260905113016 | 76 | 188 | 0.0 | 0.0 | 0.00 | 0.03 | 0.00 | 93 | 1013.2 |
| 20260905111519 | 76 | 188 | 0.0 | 0.0 | 0.00 | 0.03 | 0.00 | 93 | 1013.0 |
| 20260905110029 | 76 | 188 | 0.0 | 0.0 | 0.00 | 0.03 | 0.00 | 93 | 1012.8 |
| 20260905104512 | 76 | 188 | 0.0 | 0.0 | 0.00 | 0.03 | 0.00 | 93 | 1012.7 |
| 20260905103012 | 76 | 188 | 0.0 | 0.0 | 0.00 | 0.03 | 0.00 | 93 | 1012.7 |
| 20260905101511 | 76 | 188 | 0.0 | 0.0 | 0.00 | 0.03 | 0.00 | 93 | 1012.5 |
| 20260905100010 | 76 | 188 | 0.0 | 0.0 | 0.00 | 0.03 | 0.00 | 93 | 1012.5 |
| 20260905094509 | 76 | 188 | 0.0 | 2.0 | 0.00 | 0.06 | 0.00 | 93 | 1012.6 |
| 20260905093008 | 76 | 188 | 0.0 | 0.0 | 0.00 | 0.06 | 0.00 | 93 | 1012.6 |
| 20260905091508 | 76 | 188 | 0.0 | 0.0 | 0.00 | 0.06 | 0.00 | 93 | 1012.6 |
| 20260905090015 | 76 | 188 | 0.0 | 0.0 | 0.00 | 0.06 | 0.00 | 93 | 1012.6 |
| 20260905084507 | 76 | 188 | 0.0 | 0.0 | 0.00 | 0.09 | 0.00 | 93 | 1012.6 |
| 20260905083007 | 76 | 188 | 0.0 | 1.0 | 0.00 | 0.09 | 0.00 | 93 | 1012.5 |
| 20260905081505 | 76 | 188 | 0.0 | 0.0 | 0.00 | 0.09 | 0.00 | 93 | 1012.6 |
| 20260905080004 | 76 | 188 | 0.0 | 0.0 | 0.00 | 0.09 | 0.00 | 93 | 1012.4 |
| 20260905074502 | 76 | 188 | 0.0 | 0.0 | 0.00 | 0.09 | 0.00 | 93 | 1012.6 |
| 20260905073001 | 77 | 188 | 0.0 | 0.0 | 0.00 | 0.09 | 0.00 | 92 | 1012.6 |
| 20260905071600 | 77 | 188 | 0.0 | 0.0 | 0.00 | 0.09 | 0.00 | 92 | 1012.8 |
| 20260905070057 | 77 | 188 | 0.0 | 0.0 | 0.00 | 0.09 | 0.00 | 92 | 1013.1 |
| 20260905064601 | 77 | 188 | 0.0 | 0.0 | 0.00 | 0.09 | 0.00 | 92 | 1013.1 |
| 20260905063056 | 77 | 188 | 0.0 | 0.0 | 0.00 | 0.09 | 0.00 | 92 | 1013.2 |
| 20260905061559 | 77 | 188 | 0.0 | 0.0 | 0.00 | 0.09 | 0.00 | 92 | 1013.2 |
| 20260905060053 | 77 | 188 | 0.0 | 0.0 | 0.00 | 0.09 | 0.00 | 92 | 1013.2 |
| 20260905054553 | 77 | 188 | 0.0 | 0.0 | 0.00 | 0.09 | 0.00 | 92 | 1013.2 |
| 20260905053051 | 78 | 188 | 0.0 | 0.0 | 0.00 | 0.09 | 0.00 | 92 | 1013.2 |
| 20260905051552 | 78 | 188 | 0.0 | 0.0 | 0.00 | 0.09 | 0.00 | 92 | 1013.3 |
| 20260905050047 | 78 | 188 | 0.0 | 0.0 | 0.00 | 0.09 | 0.00 | 91 | 1013.3 |
| 20260905044547 | 78 | 188 | 0.0 | 0.0 | 0.00 | 0.09 | 0.09 | 91 | 1013.3 |
| 20260905043054 | 78 | 188 | 0.0 | 0.0 | 0.00 | 0.09 | 0.09 | 91 | 1013.3 |
| 20260905041545 | 78 | 188 | 0.0 | 0.0 | 0.00 | 0.09 | 0.09 | 91 | 1013.4 |
| 20260905040044 | 79 | 188 | 0.0 | 0.0 | 0.00 | 0.09 | 0.09 | 91 | 1013.4 |
| 20260905034554 | 79 | 188 | 0.0 | 0.0 | 0.00 | 0.09 | 0.09 | 91 | 1013.4 |
| 20260905033109 | 79 | 188 | 0.0 | 0.0 | 0.00 | 0.09 | 0.09 | 91 | 1013.4 |
| 20260905031554 | 79 | 188 | 0.0 | 0.0 | 0.00 | 0.09 | 0.09 | 91 | 1013.5 |
| 20260905030054 | 79 | 188 | 0.0 | 0.0 | 0.00 | 0.09 | 0.09 | 91 | 1013.4 |
| 20260905024542 | 79 | 188 | 0.0 | 0.0 | 0.00 | 0.09 | 0.09 | 91 | 1013.4 |
| 20260905023053 | 79 | 188 | 0.0 | 0.0 | 0.00 | 0.09 | 0.09 | 91 | 1013.4 |
| 20260905021546 | 79 | 188 | 0.0 | 0.0 | 0.00 | 0.09 | 0.09 | 90 | 1013.3 |
| 20260905020041 | 80 | 188 | 0.0 | 2.0 | 0.00 | 0.09 | 0.09 | 90 | 1013.1 |
| 20260905014540 | 80 | 188 | 0.0 | 0.0 | 0.00 | 0.09 | 0.09 | 90 | 1012.8 |
| 20260905013043 | 80 | 188 | 0.0 | 0.0 | 0.00 | 0.09 | 0.09 | 89 | 1012.6 |
| 20260905011541 | 80 | 188 | 0.0 | 0.0 | 0.00 | 0.09 | 0.09 | 89 | 1012.6 |
| 20260905010043 | 81 | 188 | 0.0 | 0.0 | 0.00 | 0.09 | 0.09 | 88 | 1012.3 |
| 20260905004538 | 81 | 188 | 0.0 | 0.0 | 0.00 | 0.09 | 0.09 | 87 | 1012.4 |
| 20260905003038 | 81 | 188 | 0.0 | 0.0 | 0.00 | 0.09 | 0.09 | 87 | 1012.2 |
| 20260905001541 | 81 | 188 | 0.0 | 0.0 | 0.00 | 0.09 | 0.09 | 86 | 1012.1 |
| 20260905000037 | 82 | 188 | 0.0 | 0.0 | 0.00 | 0.09 | 0.09 | 85 | 1012.1 |
| 20260904234535 | 82 | 188 | 0.0 | 2.0 | 0.00 | 0.09 | 0.09 | 85 | 1012.2 |
| 20260904233041 | 83 | 188 | 0.0 | 1.0 | 0.00 | 0.09 | 0.09 | 85 | 1012.2 |
| 20260904231539 | 83 | 194 | 0.0 | 1.0 | 0.00 | 0.09 | 0.09 | 85 | 1012.2 |
| 20260904230100 | 84 | 196 | 0.0 | 2.0 | 0.00 | 0.09 | 0.09 | 85 | 1012.2 |
| 20260904224534 | 83 | 129 | 0.0 | 0.0 | 0.00 | 0.09 | 0.09 | 84 | 1012.4 |
| 20260904223033 | 84 | 129 | 0.0 | 0.0 | 0.00 | 0.09 | 0.09 | 80 | 1012.2 |
| 20260904221532 | 84 | 129 | 0.0 | 1.0 | 0.00 | 0.09 | 0.09 | 80 | 1012.4 |
| 20260904220033 | 85 | 129 | 0.0 | 0.0 | 0.00 | 0.09 | 0.09 | 80 | 1012.5 |
| 20260904214530 | 85 | 129 | 0.0 | 0.0 | 0.00 | 0.10 | 0.09 | 78 | 1012.4 |
| 20260904213031 | 86 | 129 | 0.0 | 1.0 | 0.00 | 0.10 | 0.09 | 78 | 1012.5 |
| 20260904211529 | 86 | 129 | 0.0 | 0.0 | 0.00 | 0.10 | 0.09 | 77 | 1012.7 |
| 20260904210029 | 87 | 31 | 0.0 | 2.0 | 0.00 | 0.10 | 0.09 | 75 | 1012.8 |
| 20260904204532 | 87 | 32 | 0.0 | 2.0 | 0.00 | 0.13 | 0.09 | 76 | 1013.1 |
| 20260904203026 | 87 | 142 | 0.0 | 2.0 | 0.00 | 0.13 | 0.09 | 80 | 1013.4 |
| 20260904201642 | 86 | 117 | 0.0 | 2.0 | 0.00 | 0.13 | 0.09 | 79 | 1013.5 |
| 20260904200035 | 84 | 28 | 0.0 | 2.0 | 0.00 | 0.13 | 0.09 | 81 | 1013.6 |
| 20260904194523 | 83 | 28 | 0.0 | 2.0 | 0.02 | 0.17 | 0.09 | 83 | 1013.5 |
| 20260904193032 | 80 | 207 | 0.0 | 2.0 | 0.02 | 0.17 | 0.09 | 90 | 1013.9 |
| 20260904191531 | 79 | 207 | 0.0 | 0.0 | 0.03 | 0.17 | 0.09 | 91 | 1014.1 |
| 20260904190023 | 80 | 207 | 0.0 | 0.0 | 0.03 | 0.17 | 0.09 | 91 | 1014.2 |
| 20260904184521 | 78 | 207 | 0.0 | 2.0 | 0.01 | 0.18 | 0.07 | 91 | 1015.0 |
| 20260904183119 | 78 | 207 | 0.0 | 2.0 | 0.01 | 0.18 | 0.07 | 89 | 1015.2 |
| 20260904181521 | 81 | 234 | 0.0 | 2.0 | 0.00 | 0.17 | 0.06 | 86 | 1015.5 |
| 20260904180020 | 82 | 19 | 0.0 | 2.0 | 0.00 | 0.17 | 0.06 | 80 | 1015.0 |
| 20260904174515 | 87 | 233 | 0.0 | 2.0 | 0.00 | 0.17 | 0.06 | 81 | 1015.3 |
| 20260904173013 | 86 | 178 | 0.0 | 2.0 | 0.00 | 0.17 | 0.06 | 85 | 1015.1 |
| 20260904171512 | 85 | 210 | 0.0 | 2.0 | 0.00 | 0.17 | 0.06 | 85 | 1015.2 |
| 20260904170008 | 85 | 214 | 0.0 | 2.0 | 0.00 | 0.17 | 0.06 | 89 | 1015.3 |
| 20260904164508 | 85 | 210 | 0.0 | 2.0 | 0.00 | 0.17 | 0.06 | 88 | 1015.3 |
| 20260904163006 | 85 | 353 | 0.0 | 3.0 | 0.00 | 0.17 | 0.06 | 88 | 1015.2 |
| 20260904161504 | 84 | 104 | 0.0 | 5.0 | 0.00 | 0.17 | 0.06 | 92 | 1014.9 |
| 20260904160100 | 83 | 217 | 0.0 | 2.0 | 0.00 | 0.17 | 0.06 | 93 | 1015.1 |
| 20260904154557 | 83 | 217 | 0.0 | 1.0 | 0.00 | 0.17 | 0.06 | 94 | 1014.9 |
| 20260904153108 | 83 | 208 | 0.0 | 2.0 | 0.00 | 0.17 | 0.06 | 94 | 1014.8 |
| 20260904151553 | 83 | 33 | 0.0 | 2.0 | 0.00 | 0.17 | 0.06 | 95 | 1014.7 |
| 20260904150051 | 82 | 197 | 0.0 | 2.0 | 0.00 | 0.17 | 0.06 | 96 | 1014.8 |
| 20260904144548 | 81 | 242 | 0.0 | 2.0 | 0.00 | 0.17 | 0.06 | 96 | 1014.7 |
| 20260904143043 | 80 | 9 | 0.0 | 2.0 | 0.00 | 0.17 | 0.06 | 96 | 1014.6 |
| 20260904141541 | 79 | 9 | 0.0 | 0.0 | 0.00 | 0.17 | 0.06 | 96 | 1014.4 |
| 20260904140040 | 79 | 9 | 0.0 | 1.0 | 0.00 | 0.17 | 0.06 | 96 | 1014.4 |